createdAt,value
2019-02-02T00:00:08.015Z,0.00
2019-02-02T00:01:06.945Z,0.00
2019-02-02T00:02:07.026Z,0.00
2019-02-02T00:03:06.926Z,0.00
2019-02-02T00:04:06.919Z,0.00
2019-02-02T00:05:06.888Z,0.00
2019-02-02T00:06:06.899Z,0.00
2019-02-02T00:07:06.881Z,0.00
2019-02-02T00:08:06.988Z,0.00
2019-02-02T00:09:06.865Z,0.00
2019-02-02T00:10:06.859Z,0.00
2019-02-02T00:11:07.991Z,0.00
2019-02-02T00:12:06.820Z,0.00
2019-02-02T00:13:06.930Z,0.00
2019-02-02T00:14:06.791Z,0.00
2019-02-02T00:15:06.792Z,0.00
2019-02-02T00:16:06.762Z,0.00
2019-02-02T00:17:06.844Z,0.00
2019-02-02T00:18:06.806Z,0.00
2019-02-02T00:19:06.783Z,0.00
2019-02-02T00:20:06.723Z,0.00
2019-02-02T00:21:06.714Z,0.00
2019-02-02T00:22:06.783Z,0.00
2019-02-02T00:23:06.704Z,0.00
2019-02-02T00:24:07.745Z,0.00
2019-02-02T00:25:06.665Z,0.00
2019-02-02T00:26:06.656Z,0.00
2019-02-02T00:27:06.726Z,0.00
2019-02-02T00:28:06.646Z,0.00
2019-02-02T00:29:06.657Z,0.00
2019-02-02T00:30:06.607Z,0.00
2019-02-02T00:31:06.699Z,0.00
2019-02-02T00:32:06.588Z,0.00
2019-02-02T00:33:06.678Z,0.00
2019-02-02T00:34:06.559Z,0.00
2019-02-02T00:35:06.559Z,0.00
2019-02-02T00:36:06.540Z,0.00
2019-02-02T00:37:06.542Z,0.00
2019-02-02T00:38:06.530Z,0.00
2019-02-02T00:39:06.540Z,0.00
2019-02-02T00:40:06.501Z,0.00
2019-02-02T00:41:06.582Z,0.00
2019-02-02T00:42:06.553Z,0.00
2019-02-02T00:43:06.482Z,0.00
2019-02-02T00:44:06.483Z,0.00
2019-02-02T00:45:06.450Z,0.00
2019-02-02T00:46:06.523Z,0.00
2019-02-02T00:47:06.424Z,0.00
2019-02-02T00:48:06.504Z,0.00
2019-02-02T00:49:06.408Z,0.00
2019-02-02T00:50:06.496Z,0.00
2019-02-02T00:51:06.376Z,0.00
2019-02-02T00:52:06.426Z,0.00
2019-02-02T00:53:06.368Z,0.00
2019-02-02T00:54:06.357Z,0.00
2019-02-02T00:55:06.338Z,0.00
2019-02-02T00:56:06.511Z,0.00
2019-02-02T00:57:06.308Z,0.00
2019-02-02T00:58:06.330Z,0.00
2019-02-02T00:59:06.288Z,0.00
2019-02-02T01:00:07.288Z,0.00
2019-02-02T01:01:06.259Z,0.00
2019-02-02T01:02:06.299Z,0.00
2019-02-02T01:03:06.271Z,0.00
2019-02-02T01:04:06.230Z,0.00
2019-02-02T01:05:06.311Z,0.00
2019-02-02T01:06:06.201Z,0.00
2019-02-02T01:07:07.272Z,0.00
2019-02-02T01:08:06.171Z,0.00
2019-02-02T01:09:06.223Z,0.00
2019-02-02T01:10:06.153Z,0.00
2019-02-02T01:11:07.235Z,0.00
2019-02-02T01:12:06.133Z,0.00
2019-02-02T01:13:06.144Z,0.00
2019-02-02T01:14:06.124Z,0.00
2019-02-02T01:15:06.185Z,0.00
2019-02-02T01:16:06.085Z,0.00
2019-02-02T01:17:06.116Z,0.00
2019-02-02T01:18:06.066Z,0.00
2019-02-02T01:19:06.068Z,0.00
2019-02-02T01:20:06.048Z,0.00
2019-02-02T01:21:06.088Z,0.00
2019-02-02T01:22:06.028Z,0.00
2019-02-02T01:23:07.057Z,0.00
2019-02-02T01:24:11.268Z,0.00
2019-02-02T01:25:05.990Z,0.00
2019-02-02T01:26:06.040Z,0.00
2019-02-02T01:27:05.980Z,0.00
2019-02-02T01:28:06.084Z,0.00
2019-02-02T01:29:05.960Z,0.00
2019-02-02T01:30:06.010Z,0.00
2019-02-02T01:31:05.923Z,0.00
2019-02-02T01:32:06.961Z,0.00
2019-02-02T01:33:05.902Z,0.00
2019-02-02T01:34:05.924Z,0.00
2019-02-02T01:35:05.883Z,0.00
2019-02-02T01:36:05.915Z,0.00
2019-02-02T01:37:05.854Z,0.00
2019-02-02T01:38:05.957Z,0.00
2019-02-02T01:39:05.844Z,0.00
2019-02-02T01:40:05.824Z,0.00
2019-02-02T01:41:05.854Z,0.00
2019-02-02T01:42:05.796Z,0.00
2019-02-02T01:43:05.886Z,0.00
2019-02-02T01:44:05.788Z,0.00
2019-02-02T01:45:05.756Z,0.00
2019-02-02T01:46:05.746Z,0.00
2019-02-02T01:47:05.758Z,0.00
2019-02-02T01:48:05.717Z,0.00
2019-02-02T01:49:05.837Z,0.00
2019-02-02T01:50:05.698Z,0.00
2019-02-02T01:51:05.689Z,0.00
2019-02-02T01:52:05.809Z,0.00
2019-02-02T01:53:05.669Z,0.00
2019-02-02T01:54:05.784Z,0.00
2019-02-02T01:55:05.640Z,0.00
2019-02-02T01:56:05.633Z,0.00
2019-02-02T01:57:05.621Z,0.00
2019-02-02T01:58:16.038Z,0.00
2019-02-02T01:59:06.611Z,0.00
2019-02-02T02:00:05.642Z,0.00
2019-02-02T02:01:05.593Z,0.00
2019-02-02T02:02:05.682Z,0.00
2019-02-02T02:03:05.563Z,0.00
2019-02-02T02:04:05.664Z,0.00
2019-02-02T02:05:05.544Z,0.00
2019-02-02T02:06:05.554Z,0.00
2019-02-02T02:07:05.515Z,0.00
2019-02-02T02:08:05.585Z,0.00
2019-02-02T02:09:05.515Z,0.00
2019-02-02T02:10:12.276Z,0.00
2019-02-02T02:11:05.479Z,0.00
2019-02-02T02:12:05.459Z,0.00
2019-02-02T02:13:05.448Z,0.00
2019-02-02T02:14:06.466Z,0.00
2019-02-02T02:15:05.428Z,0.00
2019-02-02T02:16:05.429Z,0.00
2019-02-02T02:17:05.498Z,0.00
2019-02-02T02:18:05.389Z,0.00
2019-02-02T02:19:05.494Z,0.00
2019-02-02T02:20:05.369Z,0.00
2019-02-02T02:21:05.469Z,0.00
2019-02-02T02:22:05.354Z,0.00
2019-02-02T02:23:07.340Z,0.00
2019-02-02T02:24:05.341Z,0.00
2019-02-02T02:25:06.361Z,0.00
2019-02-02T02:26:05.303Z,0.00
2019-02-02T02:27:05.382Z,0.00
2019-02-02T02:28:05.273Z,0.00
2019-02-02T02:29:05.364Z,0.00
2019-02-02T02:30:05.256Z,0.00
2019-02-02T02:31:07.294Z,0.00
2019-02-02T02:32:05.224Z,0.00
2019-02-02T02:33:05.219Z,0.00
2019-02-02T02:34:05.220Z,0.00
2019-02-02T02:35:07.265Z,0.00
2019-02-02T02:36:05.184Z,0.00
2019-02-02T02:37:06.287Z,0.00
2019-02-02T02:38:05.226Z,0.00
2019-02-02T02:39:05.159Z,0.00
2019-02-02T02:40:05.160Z,0.00
2019-02-02T02:41:05.127Z,0.00
2019-02-02T02:42:06.238Z,0.00
2019-02-02T02:43:05.098Z,0.00
2019-02-02T02:44:06.199Z,0.00
2019-02-02T02:45:05.089Z,0.00
2019-02-02T02:46:06.100Z,0.00
2019-02-02T02:47:05.070Z,0.00
2019-02-02T02:48:05.116Z,0.00
2019-02-02T02:49:05.056Z,0.00
2019-02-02T02:50:05.054Z,0.00
2019-02-02T02:51:05.021Z,0.00
2019-02-02T02:52:05.083Z,0.00
2019-02-02T02:53:05.002Z,0.00
2019-02-02T02:54:05.005Z,0.00
2019-02-02T02:55:04.993Z,0.00
2019-02-02T02:56:04.963Z,0.00
2019-02-02T02:57:05.023Z,0.00
2019-02-02T02:58:04.936Z,0.00
2019-02-02T02:59:04.938Z,0.00
2019-02-02T03:00:04.917Z,0.00
2019-02-02T03:01:04.996Z,0.00
2019-02-02T03:02:04.897Z,0.00
2019-02-02T03:03:05.956Z,0.00
2019-02-02T03:04:04.885Z,0.00
2019-02-02T03:05:04.876Z,0.00
2019-02-02T03:06:04.938Z,0.00
2019-02-02T03:07:04.840Z,0.00
2019-02-02T03:08:04.869Z,0.00
2019-02-02T03:09:04.830Z,0.00
2019-02-02T03:10:04.819Z,0.00
2019-02-02T03:11:04.880Z,0.00
2019-02-02T03:12:04.770Z,0.00
2019-02-02T03:13:04.813Z,0.00
2019-02-02T03:14:04.750Z,0.00
2019-02-02T03:15:04.750Z,0.00
2019-02-02T03:16:04.737Z,0.00
2019-02-02T03:17:05.811Z,0.00
2019-02-02T03:18:04.702Z,0.00
2019-02-02T03:19:04.722Z,0.00
2019-02-02T03:20:04.702Z,0.00
2019-02-02T03:21:04.673Z,0.00
2019-02-02T03:22:04.724Z,0.00
2019-02-02T03:23:04.657Z,0.00
2019-02-02T03:24:04.668Z,0.00
2019-02-02T03:25:04.645Z,0.00
2019-02-02T03:26:04.626Z,0.00
2019-02-02T03:27:04.621Z,0.00
2019-02-02T03:28:04.627Z,0.00
2019-02-02T03:29:04.585Z,0.00
2019-02-02T03:30:04.628Z,0.00
2019-02-02T03:31:04.647Z,0.00
2019-02-02T03:32:04.560Z,0.00
2019-02-02T03:33:05.601Z,0.00
2019-02-02T03:34:04.540Z,0.00
2019-02-02T03:35:04.558Z,0.00
2019-02-02T03:36:04.519Z,0.00
2019-02-02T03:37:04.499Z,0.00
2019-02-02T03:38:04.519Z,0.00
2019-02-02T03:39:04.486Z,0.00
2019-02-02T03:40:04.500Z,0.00
2019-02-02T03:41:04.460Z,0.00
2019-02-02T03:42:04.445Z,0.00
2019-02-02T03:43:04.468Z,0.00
2019-02-02T03:44:04.421Z,0.00
2019-02-02T03:45:04.442Z,0.00
2019-02-02T03:46:04.402Z,0.00
2019-02-02T03:47:04.392Z,0.00
2019-02-02T03:48:04.375Z,0.00
2019-02-02T03:49:04.474Z,0.00
2019-02-02T03:50:04.374Z,0.00
2019-02-02T03:51:04.404Z,0.00
2019-02-02T03:52:04.336Z,0.00
2019-02-02T03:53:04.335Z,0.00
2019-02-02T03:54:08.847Z,0.00
2019-02-02T03:55:04.415Z,0.00
2019-02-02T03:56:04.277Z,0.00
2019-02-02T03:57:04.308Z,0.00
2019-02-02T03:58:04.256Z,0.00
2019-02-02T03:59:06.600Z,0.00
2019-02-02T04:00:04.247Z,0.00
2019-02-02T04:01:05.307Z,0.00
2019-02-02T04:02:04.211Z,0.00
2019-02-02T04:03:04.198Z,0.00
2019-02-02T04:04:04.290Z,0.00
2019-02-02T04:05:04.189Z,0.00
2019-02-02T04:06:04.221Z,0.00
2019-02-02T04:07:04.141Z,0.00
2019-02-02T04:08:04.141Z,0.00
2019-02-02T04:09:04.133Z,0.00
2019-02-02T04:10:04.241Z,0.00
2019-02-02T04:11:04.122Z,0.00
2019-02-02T04:12:04.132Z,0.00
2019-02-02T04:13:04.092Z,0.00
2019-02-02T04:14:04.082Z,0.00
2019-02-02T04:15:04.185Z,0.00
2019-02-02T04:16:04.063Z,0.00
2019-02-02T04:17:04.063Z,0.00
2019-02-02T04:18:04.034Z,0.00
2019-02-02T04:19:04.024Z,0.00
2019-02-02T04:20:04.125Z,0.00
2019-02-02T04:21:04.120Z,0.00
2019-02-02T04:22:04.106Z,0.00
2019-02-02T04:23:03.976Z,0.00
2019-02-02T04:24:03.967Z,0.00
2019-02-02T04:25:03.976Z,0.00
2019-02-02T04:26:06.027Z,0.00
2019-02-02T04:27:03.937Z,0.00
2019-02-02T04:28:04.007Z,0.00
2019-02-02T04:29:03.918Z,0.00
2019-02-02T04:30:03.921Z,0.00
2019-02-02T04:31:03.932Z,0.00
2019-02-02T04:32:03.879Z,0.00
2019-02-02T04:33:03.950Z,0.00
2019-02-02T04:34:03.850Z,0.00
2019-02-02T04:35:03.861Z,0.00
2019-02-02T04:36:03.820Z,0.00
2019-02-02T04:37:03.922Z,0.00
2019-02-02T04:38:03.801Z,0.00
2019-02-02T04:39:03.853Z,0.00
2019-02-02T04:40:03.872Z,0.00
2019-02-02T04:41:03.773Z,0.00
2019-02-02T04:42:03.864Z,0.00
2019-02-02T04:43:03.743Z,0.00
2019-02-02T04:44:03.795Z,0.00
2019-02-02T04:45:03.738Z,0.00
2019-02-02T04:46:03.728Z,0.00
2019-02-02T04:47:03.706Z,0.00
2019-02-02T04:48:03.765Z,0.00
2019-02-02T04:49:03.675Z,0.00
2019-02-02T04:50:05.796Z,0.00
2019-02-02T04:51:04.706Z,0.00
2019-02-02T04:52:03.647Z,0.00
2019-02-02T04:53:03.709Z,0.00
2019-02-02T04:54:03.639Z,0.00
2019-02-02T04:55:03.742Z,0.00
2019-02-02T04:56:03.720Z,0.00
2019-02-02T04:57:03.599Z,0.00
2019-02-02T04:58:03.649Z,0.00
2019-02-02T04:59:03.580Z,0.00
2019-02-02T05:00:03.642Z,0.00
2019-02-02T05:01:03.540Z,0.00
2019-02-02T05:02:03.620Z,0.00
2019-02-02T05:03:03.531Z,0.00
2019-02-02T05:04:03.561Z,0.00
2019-02-02T05:05:03.522Z,0.00
2019-02-02T05:06:03.595Z,0.00
2019-02-02T05:07:03.513Z,0.00
2019-02-02T05:08:03.533Z,0.00
2019-02-02T05:09:03.463Z,0.00
2019-02-02T05:10:03.513Z,0.00
2019-02-02T05:11:03.445Z,0.00
2019-02-02T05:12:03.435Z,0.00
2019-02-02T05:13:03.415Z,0.00
2019-02-02T05:14:03.436Z,0.00
2019-02-02T05:15:03.385Z,0.00
2019-02-02T05:16:03.426Z,0.00
2019-02-02T05:17:03.436Z,0.00
2019-02-02T05:18:03.356Z,0.00
2019-02-02T05:19:03.376Z,0.00
2019-02-02T05:20:03.327Z,0.00
2019-02-02T05:21:03.347Z,0.00
2019-02-02T05:22:03.308Z,0.00
2019-02-02T05:23:03.340Z,0.00
2019-02-02T05:24:03.289Z,0.00
2019-02-02T05:25:03.380Z,0.00
2019-02-02T05:26:03.279Z,0.00
2019-02-02T05:27:03.330Z,0.00
2019-02-02T05:28:03.241Z,0.00
2019-02-02T05:29:03.260Z,0.00
2019-02-02T05:30:03.238Z,0.00
2019-02-02T05:31:03.332Z,0.00
2019-02-02T05:32:03.191Z,0.00
2019-02-02T05:33:03.192Z,0.00
2019-02-02T05:34:03.173Z,0.00
2019-02-02T05:35:04.183Z,0.00
2019-02-02T05:36:03.173Z,0.00
2019-02-02T05:37:04.223Z,0.00
2019-02-02T05:38:03.138Z,0.00
2019-02-02T05:39:05.295Z,0.00
2019-02-02T05:40:03.119Z,0.00
2019-02-02T05:41:03.226Z,0.00
2019-02-02T05:42:03.098Z,0.00
2019-02-02T05:43:03.116Z,0.00
2019-02-02T05:44:03.066Z,0.00
2019-02-02T05:45:03.147Z,0.00
2019-02-02T05:46:03.075Z,0.00
2019-02-02T05:47:03.077Z,0.00
2019-02-02T05:48:03.027Z,0.00
2019-02-02T05:49:03.021Z,0.00
2019-02-02T05:50:03.000Z,0.00
2019-02-02T05:51:03.099Z,0.00
2019-02-02T05:52:02.979Z,0.00
2019-02-02T05:53:02.980Z,0.00
2019-02-02T05:54:03.040Z,0.00
2019-02-02T05:55:02.950Z,0.00
2019-02-02T05:56:03.037Z,0.00
2019-02-02T05:57:02.921Z,0.00
2019-02-02T05:58:02.922Z,0.00
2019-02-02T05:59:02.902Z,0.00
2019-02-02T06:00:02.962Z,0.00
2019-02-02T06:01:02.892Z,0.00
2019-02-02T06:02:02.894Z,0.00
2019-02-02T06:03:02.843Z,0.00
2019-02-02T06:04:02.934Z,0.00
2019-02-02T06:05:02.824Z,0.00
2019-02-02T06:06:02.906Z,0.00
2019-02-02T06:07:02.807Z,0.00
2019-02-02T06:08:02.896Z,0.00
2019-02-02T06:09:02.786Z,0.00
2019-02-02T06:10:02.767Z,0.00
2019-02-02T06:11:02.769Z,0.00
2019-02-02T06:12:02.767Z,0.00
2019-02-02T06:13:02.738Z,0.00
2019-02-02T06:14:02.809Z,0.00
2019-02-02T06:15:03.810Z,0.00
2019-02-02T06:16:02.728Z,0.00
2019-02-02T06:17:02.721Z,0.00
2019-02-02T06:18:02.689Z,0.00
2019-02-02T06:19:04.699Z,0.00
2019-02-02T06:20:02.669Z,0.00
2019-02-02T06:21:02.740Z,0.00
2019-02-02T06:22:02.640Z,0.00
2019-02-02T06:23:03.642Z,0.00
2019-02-02T06:24:02.621Z,0.00
2019-02-02T06:25:02.665Z,0.00
2019-02-02T06:26:02.617Z,0.00
2019-02-02T06:27:02.593Z,0.00
2019-02-02T06:28:02.572Z,0.00
2019-02-02T06:29:02.633Z,0.00
2019-02-02T06:30:04.388Z,0.00
2019-02-02T06:31:02.553Z,0.00
2019-02-02T06:32:11.592Z,0.00
2019-02-02T06:33:03.528Z,4.00
2019-02-02T06:34:02.572Z,4.00
2019-02-02T06:35:02.498Z,4.00
2019-02-02T06:36:03.656Z,4.00
2019-02-02T06:37:02.476Z,4.00
2019-02-02T06:38:02.541Z,8.00
2019-02-02T06:39:02.437Z,4.00
2019-02-02T06:40:02.477Z,8.00
2019-02-02T06:41:02.437Z,8.00
2019-02-02T06:42:02.512Z,8.00
2019-02-02T06:43:02.408Z,12.00
2019-02-02T06:44:02.450Z,12.00
2019-02-02T06:45:02.379Z,16.00
2019-02-02T06:46:02.420Z,12.00
2019-02-02T06:47:02.349Z,16.00
2019-02-02T06:48:02.420Z,16.00
2019-02-02T06:49:02.332Z,24.00
2019-02-02T06:50:02.350Z,24.00
2019-02-02T06:51:02.320Z,24.00
2019-02-02T06:52:02.292Z,24.00
2019-02-02T06:53:02.282Z,28.00
2019-02-02T06:54:02.322Z,32.00
2019-02-02T06:55:02.278Z,32.00
2019-02-02T06:56:02.303Z,32.00
2019-02-02T06:57:02.253Z,36.00
2019-02-02T06:58:02.304Z,36.00
2019-02-02T06:59:02.240Z,40.00
2019-02-02T07:00:02.236Z,44.00
2019-02-02T07:01:02.214Z,48.00
2019-02-02T07:02:02.403Z,56.00
2019-02-02T07:03:02.294Z,60.00
2019-02-02T07:04:02.206Z,56.00
2019-02-02T07:05:02.156Z,60.00
2019-02-02T07:06:02.197Z,68.00
2019-02-02T07:07:02.143Z,72.00
2019-02-02T07:08:02.129Z,84.00
2019-02-02T07:09:02.149Z,88.00
2019-02-02T07:10:02.099Z,100.00
2019-02-02T07:11:02.129Z,108.00
2019-02-02T07:12:02.080Z,116.00
2019-02-02T07:13:02.070Z,124.00
2019-02-02T07:14:04.150Z,128.00
2019-02-02T07:15:02.040Z,132.00
2019-02-02T07:16:02.120Z,136.00
2019-02-02T07:17:02.031Z,136.00
2019-02-02T07:18:02.011Z,136.00
2019-02-02T07:19:02.022Z,140.00
2019-02-02T07:20:03.017Z,144.00
2019-02-02T07:21:01.963Z,148.00
2019-02-02T07:22:02.073Z,152.00
2019-02-02T07:23:01.946Z,156.00
2019-02-02T07:24:01.963Z,164.00
2019-02-02T07:25:01.924Z,172.00
2019-02-02T07:26:01.994Z,176.00
2019-02-02T07:27:01.918Z,176.00
2019-02-02T07:28:01.938Z,180.00
2019-02-02T07:29:01.877Z,184.00
2019-02-02T07:30:04.967Z,192.00
2019-02-02T07:31:01.876Z,196.00
2019-02-02T07:32:01.956Z,200.00
2019-02-02T07:33:01.837Z,204.00
2019-02-02T07:34:01.829Z,212.00
2019-02-02T07:35:01.909Z,220.00
2019-02-02T07:36:01.809Z,232.00
2019-02-02T07:37:01.889Z,248.00
2019-02-02T07:38:01.789Z,268.00
2019-02-02T07:39:01.830Z,268.00
2019-02-02T07:40:01.759Z,260.00
2019-02-02T07:41:01.820Z,260.00
2019-02-02T07:42:01.750Z,256.00
2019-02-02T07:43:02.786Z,248.00
2019-02-02T07:44:01.831Z,248.00
2019-02-02T07:45:01.703Z,244.00
2019-02-02T07:46:01.762Z,244.00
2019-02-02T07:47:01.702Z,256.00
2019-02-02T07:48:01.702Z,272.00
2019-02-02T07:49:01.663Z,280.00
2019-02-02T07:50:01.733Z,288.00
2019-02-02T07:51:01.645Z,296.00
2019-02-02T07:52:01.714Z,304.00
2019-02-02T07:53:01.615Z,316.00
2019-02-02T07:54:01.704Z,328.00
2019-02-02T07:55:01.597Z,332.00
2019-02-02T07:56:01.636Z,344.00
2019-02-02T07:57:01.576Z,352.00
2019-02-02T07:58:01.567Z,352.00
2019-02-02T07:59:01.538Z,348.00
2019-02-02T08:00:01.528Z,344.00
2019-02-02T08:01:01.578Z,344.00
2019-02-02T08:02:01.518Z,356.00
2019-02-02T08:03:01.608Z,368.00
2019-02-02T08:04:01.479Z,384.00
2019-02-02T08:05:01.471Z,400.00
2019-02-02T08:06:01.461Z,416.00
2019-02-02T08:07:01.530Z,424.00
2019-02-02T08:08:01.462Z,440.00
2019-02-02T08:09:01.520Z,468.00
2019-02-02T08:10:01.423Z,492.00
2019-02-02T08:11:01.451Z,496.00
2019-02-02T08:12:01.413Z,496.00
2019-02-02T08:13:01.492Z,512.00
2019-02-02T08:14:01.373Z,532.00
2019-02-02T08:15:01.543Z,544.00
2019-02-02T08:16:01.354Z,540.00
2019-02-02T08:17:01.418Z,540.00
2019-02-02T08:18:01.334Z,548.00
2019-02-02T08:19:01.405Z,556.00
2019-02-02T08:20:01.316Z,560.00
2019-02-02T08:21:01.308Z,568.00
2019-02-02T08:22:01.311Z,568.00
2019-02-02T08:23:02.298Z,576.00
2019-02-02T08:24:01.267Z,576.00
2019-02-02T08:25:01.309Z,572.00
2019-02-02T08:26:01.277Z,584.00
2019-02-02T08:27:01.258Z,620.00
2019-02-02T08:28:01.323Z,660.00
2019-02-02T08:29:01.219Z,696.00
2019-02-02T08:30:08.209Z,712.00
2019-02-02T08:31:01.190Z,704.00
2019-02-02T08:32:01.241Z,692.00
2019-02-02T08:33:01.169Z,676.00
2019-02-02T08:34:01.220Z,656.00
2019-02-02T08:35:01.142Z,648.00
2019-02-02T08:36:03.984Z,664.00
2019-02-02T08:37:01.173Z,708.00
2019-02-02T08:38:01.111Z,748.00
2019-02-02T08:39:01.162Z,760.00
2019-02-02T08:40:01.165Z,756.00
2019-02-02T08:41:01.093Z,768.00
2019-02-02T08:42:01.114Z,812.00
2019-02-02T08:43:01.054Z,856.00
2019-02-02T08:44:01.105Z,876.00
2019-02-02T08:45:01.026Z,864.00
2019-02-02T08:46:01.134Z,848.00
2019-02-02T08:47:01.015Z,828.00
2019-02-02T08:48:02.086Z,816.00
2019-02-02T08:49:00.976Z,800.00
2019-02-02T08:50:00.997Z,772.00
2019-02-02T08:51:00.959Z,752.00
2019-02-02T08:52:00.996Z,768.00
2019-02-02T08:53:00.949Z,792.00
2019-02-02T08:54:03.379Z,796.00
2019-02-02T08:55:00.909Z,800.00
2019-02-02T08:56:00.918Z,844.00
2019-02-02T08:57:00.897Z,924.00
2019-02-02T08:58:00.907Z,988.00
2019-02-02T08:59:01.019Z,1024.00
2019-02-02T09:00:00.861Z,1072.00
2019-02-02T09:01:04.175Z,1120.00
2019-02-02T09:02:00.851Z,1120.00
2019-02-02T09:03:00.833Z,1076.00
2019-02-02T09:04:00.824Z,1052.00
2019-02-02T09:05:02.136Z,1060.00
2019-02-02T09:06:00.800Z,1064.00
2019-02-02T09:07:00.914Z,1052.00
2019-02-02T09:08:00.773Z,1040.00
2019-02-02T09:09:00.793Z,1064.00
2019-02-02T09:10:00.755Z,1104.00
2019-02-02T09:11:00.834Z,1116.00
2019-02-02T09:12:00.746Z,1100.00
2019-02-02T09:13:00.767Z,1092.00
2019-02-02T09:14:00.706Z,1128.00
2019-02-02T09:15:00.806Z,1172.00
2019-02-02T09:16:00.687Z,1180.00
2019-02-02T09:17:00.787Z,1144.00
2019-02-02T09:18:00.657Z,1116.00
2019-02-02T09:19:00.647Z,1104.00
2019-02-02T09:20:01.667Z,1116.00
2019-02-02T09:21:00.629Z,1128.00
2019-02-02T09:22:01.698Z,1176.00
2019-02-02T09:23:06.259Z,1244.00
2019-02-02T09:24:01.590Z,1276.00
2019-02-02T09:25:00.680Z,1280.00
2019-02-02T09:26:00.581Z,1296.00
2019-02-02T09:27:00.620Z,1316.00
2019-02-02T09:28:00.571Z,1356.00
2019-02-02T09:29:00.522Z,1348.00
2019-02-02T09:30:00.522Z,1296.00
2019-02-02T09:31:00.592Z,1288.00
2019-02-02T09:32:00.492Z,1320.00
2019-02-02T09:33:00.566Z,1332.00
2019-02-02T09:34:00.473Z,1340.00
2019-02-02T09:35:00.564Z,1372.00
2019-02-02T09:36:00.445Z,1440.00
2019-02-02T09:37:00.494Z,1552.00
2019-02-02T09:38:00.434Z,1636.00
2019-02-02T09:39:00.525Z,1644.00
2019-02-02T09:40:00.536Z,1632.00
2019-02-02T09:41:00.466Z,1592.00
2019-02-02T09:42:00.376Z,1616.00
2019-02-02T09:43:00.458Z,1692.00
2019-02-02T09:44:00.374Z,1720.00
2019-02-02T09:45:00.358Z,1688.00
2019-02-02T09:46:00.348Z,1668.00
2019-02-02T09:47:00.378Z,1688.00
2019-02-02T09:48:00.340Z,1692.00
2019-02-02T09:49:00.419Z,1680.00
2019-02-02T09:50:00.300Z,1720.00
2019-02-02T09:51:00.350Z,1820.00
2019-02-02T09:52:00.280Z,1888.00
2019-02-02T09:53:01.360Z,1892.00
2019-02-02T09:54:00.252Z,1848.00
2019-02-02T09:55:00.373Z,1800.00
2019-02-02T09:56:00.234Z,1780.00
2019-02-02T09:57:00.263Z,1816.00
2019-02-02T09:58:00.222Z,1856.00
2019-02-02T09:59:00.293Z,1880.00
2019-02-02T10:00:00.194Z,1916.00
2019-02-02T10:01:00.178Z,1976.00
2019-02-02T10:02:00.164Z,2044.00
2019-02-02T10:03:00.215Z,2052.00
2019-02-02T10:04:00.135Z,1976.00
2019-02-02T10:05:00.355Z,1936.00
2019-02-02T10:06:00.165Z,1912.00
2019-02-02T10:07:00.099Z,1912.00
2019-02-02T10:08:00.146Z,1968.00
2019-02-02T10:09:00.077Z,1992.00
2019-02-02T10:10:00.389Z,1956.00
2019-02-02T10:11:00.068Z,1860.00
2019-02-02T10:12:00.070Z,1776.00
2019-02-02T10:13:00.048Z,1780.00
2019-02-02T10:14:00.108Z,1756.00
2019-02-02T10:15:00.009Z,1688.00
2019-02-02T10:16:00.039Z,1612.00
2019-02-02T10:16:59.999Z,1484.00
2019-02-02T10:18:00.020Z,1464.00
2019-02-02T10:18:59.962Z,1532.00
2019-02-02T10:20:00.011Z,1560.00
2019-02-02T10:21:04.085Z,1584.00
2019-02-02T10:21:59.940Z,1556.00
2019-02-02T10:22:59.932Z,1536.00
2019-02-02T10:24:00.003Z,1448.00
2019-02-02T10:24:59.895Z,1312.00
2019-02-02T10:25:59.933Z,1436.00
2019-02-02T10:26:59.885Z,1528.00
2019-02-02T10:27:59.916Z,1660.00
2019-02-02T10:28:59.864Z,1816.00
2019-02-02T10:29:59.906Z,1984.00
2019-02-02T10:30:59.835Z,2104.00
2019-02-02T10:31:59.935Z,2144.00
2019-02-02T10:32:59.826Z,2180.00
2019-02-02T10:33:59.876Z,2208.00
2019-02-02T10:34:59.798Z,2204.00
2019-02-02T10:35:59.807Z,2152.00
2019-02-02T10:36:59.767Z,2108.00
2019-02-02T10:37:59.778Z,2092.00
2019-02-02T10:38:59.748Z,2088.00
2019-02-02T10:39:59.779Z,2096.00
2019-02-02T10:40:59.719Z,2112.00
2019-02-02T10:41:59.809Z,2120.00
2019-02-02T10:42:59.719Z,2100.00
2019-02-02T10:44:00.771Z,2064.00
2019-02-02T10:44:59.681Z,2056.00
2019-02-02T10:45:59.681Z,2036.00
2019-02-02T10:46:59.655Z,2000.00
2019-02-02T10:48:01.712Z,2012.00
2019-02-02T10:48:59.622Z,2060.00
2019-02-02T10:49:59.652Z,2152.00
2019-02-02T10:50:59.612Z,2368.00
2019-02-02T10:51:59.695Z,2600.00
2019-02-02T10:52:59.600Z,2740.00
2019-02-02T10:53:59.564Z,2788.00
2019-02-02T10:54:59.594Z,2764.00
2019-02-02T10:55:59.545Z,2628.00
2019-02-02T10:56:59.635Z,2448.00
2019-02-02T10:57:59.546Z,2252.00
2019-02-02T10:58:59.528Z,2116.00
2019-02-02T10:59:59.501Z,2068.00
2019-02-02T11:00:59.642Z,1984.00
2019-02-02T11:01:59.478Z,1836.00
2019-02-02T11:03:00.668Z,1828.00
2019-02-02T11:03:59.458Z,1928.00
2019-02-02T11:04:59.571Z,1956.00
2019-02-02T11:05:59.430Z,1844.00
2019-02-02T11:06:59.627Z,1744.00
2019-02-02T11:07:59.541Z,1712.00
2019-02-02T11:08:59.459Z,1644.00
2019-02-02T11:09:59.431Z,1552.00
2019-02-02T11:10:59.549Z,1472.00
2019-02-02T11:11:59.507Z,1432.00
2019-02-02T11:12:59.612Z,1424.00
2019-02-02T11:13:59.470Z,1396.00
2019-02-02T11:14:59.394Z,1416.00
2019-02-02T11:15:59.538Z,1496.00
2019-02-02T11:16:59.534Z,1512.00
2019-02-02T11:17:59.400Z,1544.00
2019-02-02T11:18:59.398Z,1640.00
2019-02-02T11:19:59.285Z,1680.00
2019-02-02T11:21:00.389Z,1676.00
2019-02-02T11:21:59.265Z,1704.00
2019-02-02T11:22:59.435Z,1792.00
2019-02-02T11:23:59.236Z,1860.00
2019-02-02T11:24:59.281Z,1932.00
2019-02-02T11:25:59.316Z,1988.00
2019-02-02T11:26:59.290Z,2064.00
2019-02-02T11:27:59.288Z,2140.00
2019-02-02T11:29:00.314Z,2152.00
2019-02-02T11:29:59.209Z,2180.00
2019-02-02T11:30:59.158Z,2180.00
2019-02-02T11:32:02.919Z,2140.00
2019-02-02T11:32:59.140Z,2268.00
2019-02-02T11:34:00.220Z,2368.00
2019-02-02T11:34:59.100Z,2276.00
2019-02-02T11:35:59.090Z,2156.00
2019-02-02T11:36:59.091Z,2304.00
2019-02-02T11:37:59.123Z,2324.00
2019-02-02T11:38:59.572Z,2104.00
2019-02-02T11:39:59.162Z,1900.00
2019-02-02T11:40:59.035Z,1872.00
2019-02-02T11:41:59.026Z,1988.00
2019-02-02T11:42:59.065Z,1944.00
2019-02-02T11:43:59.017Z,1924.00
2019-02-02T11:44:59.094Z,1932.00
2019-02-02T11:45:59.059Z,1976.00
2019-02-02T11:46:58.965Z,2064.00
2019-02-02T11:47:58.995Z,2164.00
2019-02-02T11:48:58.966Z,2168.00
2019-02-02T11:49:59.036Z,2200.00
2019-02-02T11:50:58.926Z,2160.00
2019-02-02T11:51:58.908Z,2024.00
2019-02-02T11:52:59.631Z,1980.00
2019-02-02T11:53:59.982Z,2064.00
2019-02-02T11:54:58.879Z,1984.00
2019-02-02T11:55:59.628Z,1924.00
2019-02-02T11:56:58.869Z,2312.00
2019-02-02T11:57:59.033Z,2500.00
2019-02-02T11:58:58.861Z,2480.00
2019-02-02T11:59:58.920Z,2604.00
2019-02-02T12:00:58.821Z,2740.00
2019-02-02T12:01:58.861Z,2532.00
2019-02-02T12:02:58.802Z,2676.00
2019-02-02T12:03:58.842Z,2892.00
2019-02-02T12:04:58.773Z,2872.00
2019-02-02T12:05:58.834Z,2936.00
2019-02-02T12:06:58.754Z,2976.00
2019-02-02T12:07:58.751Z,3248.00
2019-02-02T12:08:58.787Z,3344.00
2019-02-02T12:09:58.714Z,3296.00
2019-02-02T12:10:58.765Z,3240.00
2019-02-02T12:11:58.696Z,2988.00
2019-02-02T12:12:58.687Z,2552.00
2019-02-02T12:13:58.786Z,2248.00
2019-02-02T12:14:58.741Z,2560.00
2019-02-02T12:15:58.657Z,2792.00
2019-02-02T12:16:58.669Z,2588.00
2019-02-02T12:17:58.619Z,2448.00
2019-02-02T12:18:58.648Z,2244.00
2019-02-02T12:19:58.681Z,1880.00
2019-02-02T12:20:58.639Z,2032.00
2019-02-02T12:21:58.573Z,2276.00
2019-02-02T12:22:58.645Z,2280.00
2019-02-02T12:23:58.561Z,2124.00
2019-02-02T12:25:01.591Z,1944.00
2019-02-02T12:25:58.531Z,1852.00
2019-02-02T12:26:58.564Z,1976.00
2019-02-02T12:27:58.502Z,2104.00
2019-02-02T12:28:58.502Z,1992.00
2019-02-02T12:29:58.553Z,1724.00
2019-02-02T12:30:58.473Z,1800.00
2019-02-02T12:31:58.494Z,1732.00
2019-02-02T12:32:58.447Z,1560.00
2019-02-02T12:33:58.454Z,1524.00
2019-02-02T12:34:58.426Z,1560.00
2019-02-02T12:35:58.466Z,1652.00
2019-02-02T12:36:58.416Z,1620.00
2019-02-02T12:37:58.497Z,1536.00
2019-02-02T12:38:58.517Z,1512.00
2019-02-02T12:39:58.377Z,1540.00
2019-02-02T12:40:59.714Z,1580.00
2019-02-02T12:41:58.357Z,1560.00
2019-02-02T12:42:58.448Z,1588.00
2019-02-02T12:43:58.353Z,1648.00
2019-02-02T12:44:59.399Z,1628.00
2019-02-02T12:45:58.309Z,1516.00
2019-02-02T12:46:58.310Z,1644.00